createdAt,value
2017-10-09T00:00:18.658Z,994.09
2017-10-09T00:01:18.688Z,994.10
2017-10-09T00:02:18.726Z,994.16
2017-10-09T00:03:18.736Z,994.11
2017-10-09T00:04:18.780Z,994.14
2017-10-09T00:05:18.827Z,994.12
2017-10-09T00:06:18.151Z,994.14
2017-10-09T00:07:18.084Z,994.15
2017-10-09T00:08:18.108Z,994.22
2017-10-09T00:09:18.250Z,994.16
2017-10-09T00:10:18.213Z,996.28
2017-10-09T00:11:17.555Z,994.20
2017-10-09T00:12:17.592Z,994.16
2017-10-09T00:13:17.534Z,994.19
2017-10-09T00:14:17.672Z,994.15
2017-10-09T00:15:17.507Z,994.20
2017-10-09T00:16:18.156Z,994.14
2017-10-09T00:17:18.245Z,994.13
2017-10-09T00:18:18.381Z,994.20
2017-10-09T00:19:18.724Z,994.22
2017-10-09T00:20:18.705Z,994.13
2017-10-09T00:21:18.770Z,994.23
2017-10-09T00:22:18.314Z,994.22
2017-10-09T00:23:18.113Z,994.19
2017-10-09T00:24:18.161Z,994.17
2017-10-09T00:25:18.206Z,994.17
2017-10-09T00:26:18.197Z,994.16
2017-10-09T00:27:17.515Z,994.19
2017-10-09T00:28:17.537Z,994.11
2017-10-09T00:29:17.568Z,994.22
2017-10-09T00:30:17.607Z,994.20
2017-10-09T00:31:17.545Z,994.24
2017-10-09T00:32:18.176Z,994.24
2017-10-09T00:33:18.804Z,994.20
2017-10-09T00:34:18.428Z,994.19
2017-10-09T00:35:18.555Z,994.23
2017-10-09T00:36:18.789Z,994.20
2017-10-09T00:37:18.828Z,994.18
2017-10-09T00:38:18.861Z,994.28
2017-10-09T00:39:18.796Z,994.22
2017-10-09T00:40:18.217Z,994.22
2017-10-09T00:41:18.243Z,994.20
2017-10-09T00:42:18.264Z,994.21
2017-10-09T00:43:17.580Z,994.22
2017-10-09T00:44:17.617Z,994.25
2017-10-09T00:45:17.644Z,994.27
2017-10-09T00:46:17.587Z,994.27
2017-10-09T00:47:17.608Z,994.26
2017-10-09T00:48:17.632Z,994.31
2017-10-09T00:49:18.254Z,994.19
2017-10-09T00:50:18.602Z,994.24
2017-10-09T00:51:18.824Z,994.29
2017-10-09T00:52:18.853Z,994.34
2017-10-09T00:53:18.908Z,994.35
2017-10-09T00:54:18.935Z,994.30
2017-10-09T00:55:18.983Z,994.28
2017-10-09T00:56:18.906Z,994.35
2017-10-09T00:57:18.238Z,994.34
2017-10-09T00:58:17.561Z,994.32
2017-10-09T00:59:18.315Z,994.34
2017-10-09T01:03:13.930Z,994.32
2017-10-09T01:03:14.744Z,994.33
2017-10-09T01:03:15.555Z,994.33
2017-10-09T01:03:17.671Z,994.32
2017-10-09T01:06:02.604Z,994.25
2017-10-09T01:06:03.415Z,994.29
2017-10-09T01:08:33.707Z,994.39
2017-10-09T01:08:34.523Z,994.31
2017-10-09T01:08:35.336Z,994.36
2017-10-09T01:11:44.875Z,994.26
2017-10-09T01:11:45.687Z,994.31
2017-10-09T01:11:46.498Z,994.29
2017-10-09T01:15:09.994Z,994.29
2017-10-09T01:15:10.807Z,994.19
2017-10-09T01:15:11.624Z,994.29
2017-10-09T01:17:46.912Z,994.24
2017-10-09T01:17:47.725Z,994.26
2017-10-09T01:17:48.538Z,994.24
2017-10-09T01:21:10.765Z,994.26
2017-10-09T01:21:11.475Z,994.23
2017-10-09T01:21:12.399Z,994.27
2017-10-09T01:23:47.458Z,994.31
2017-10-09T01:23:48.270Z,994.29
2017-10-09T01:23:49.080Z,994.28
2017-10-09T01:27:10.153Z,994.32
2017-10-09T01:27:10.968Z,994.31
2017-10-09T01:27:11.775Z,994.26
2017-10-09T01:29:47.044Z,994.21
2017-10-09T01:29:47.855Z,994.22
2017-10-09T01:29:48.556Z,994.29
2017-10-09T01:32:34.901Z,994.16
2017-10-09T01:32:35.742Z,994.30
2017-10-09T01:32:36.553Z,994.27
2017-10-09T01:35:40.538Z,994.24
2017-10-09T01:35:41.357Z,994.20
2017-10-09T01:35:42.167Z,994.25
2017-10-09T01:38:33.725Z,994.23
2017-10-09T01:38:34.532Z,994.25
2017-10-09T01:38:35.350Z,994.25
2017-10-09T01:41:45.595Z,994.22
2017-10-09T01:41:46.409Z,994.27
2017-10-09T01:41:47.221Z,994.23
2017-10-09T01:45:10.090Z,994.25
2017-10-09T01:45:10.794Z,994.21
2017-10-09T01:45:11.911Z,994.23
2017-10-09T01:47:47.285Z,994.22
2017-10-09T01:47:48.197Z,994.30
2017-10-09T01:47:49.316Z,994.20
2017-10-09T01:51:05.399Z,994.17
2017-10-09T01:51:07.049Z,994.30
2017-10-09T01:51:08.915Z,994.21
2017-10-09T01:53:44.635Z,994.17
2017-10-09T01:53:45.511Z,994.14
2017-10-09T01:53:46.539Z,994.19
2017-10-09T01:56:33.842Z,994.16
2017-10-09T01:56:34.662Z,994.21
2017-10-09T01:56:35.264Z,994.20
2017-10-09T01:59:46.726Z,994.19
2017-10-09T01:59:47.539Z,994.20
2017-10-09T01:59:48.351Z,994.20
2017-10-09T02:00:17.827Z,994.22
2017-10-09T02:01:19.053Z,994.24
2017-10-09T02:02:19.087Z,994.20
2017-10-09T02:03:19.123Z,994.24
2017-10-09T02:04:18.447Z,994.21
2017-10-09T02:05:18.469Z,994.18
2017-10-09T02:06:18.501Z,994.25
2017-10-09T02:07:17.858Z,994.20
2017-10-09T02:08:17.877Z,994.22
2017-10-09T02:09:18.022Z,994.20
2017-10-09T02:10:17.941Z,994.27
2017-10-09T02:11:17.885Z,994.22
2017-10-09T02:12:17.911Z,994.19
2017-10-09T02:13:18.542Z,994.25
2017-10-09T02:14:19.071Z,994.27
2017-10-09T02:15:19.221Z,994.24
2017-10-09T02:16:19.170Z,994.28
2017-10-09T02:17:19.107Z,994.28
2017-10-09T02:18:19.145Z,994.25
2017-10-09T02:19:19.228Z,994.30
2017-10-09T02:20:19.198Z,994.37
2017-10-09T02:21:18.531Z,994.28
2017-10-09T02:22:18.559Z,994.29
2017-10-09T02:23:17.915Z,994.29
2017-10-09T02:24:17.948Z,994.28
2017-10-09T02:25:17.982Z,994.27
2017-10-09T02:26:18.002Z,994.29
2017-10-09T02:27:17.948Z,994.39
2017-10-09T02:28:17.981Z,994.36
2017-10-09T02:29:17.951Z,994.33
2017-10-09T02:30:18.601Z,994.37
2017-10-09T02:31:19.226Z,994.39
2017-10-09T02:32:19.169Z,994.43
2017-10-09T02:33:18.787Z,994.40
2017-10-09T02:34:19.243Z,994.41
2017-10-09T02:35:19.176Z,994.45
2017-10-09T02:36:19.203Z,994.47
2017-10-09T02:37:18.538Z,994.50
2017-10-09T02:38:18.572Z,994.45
2017-10-09T02:39:18.599Z,994.48
2017-10-09T02:40:18.630Z,994.48
2017-10-09T02:41:17.968Z,994.50
2017-10-09T02:42:17.992Z,994.47
2017-10-09T02:43:18.030Z,994.49
2017-10-09T02:44:18.095Z,994.46
2017-10-09T02:45:18.012Z,994.48
2017-10-09T02:46:18.051Z,994.44
2017-10-09T02:47:18.669Z,994.47
2017-10-09T02:48:18.697Z,994.50
2017-10-09T02:49:19.267Z,994.52
2017-10-09T02:50:19.239Z,994.58
2017-10-09T02:51:19.294Z,994.59
2017-10-09T02:52:19.233Z,994.58
2017-10-09T02:53:19.281Z,994.53
2017-10-09T02:54:19.324Z,994.52
2017-10-09T02:55:19.362Z,994.52
2017-10-09T02:56:18.700Z,994.55
2017-10-09T02:57:18.029Z,994.55
2017-10-09T02:58:18.071Z,994.55
2017-10-09T02:59:18.099Z,994.49
2017-10-09T03:00:18.080Z,994.49
2017-10-09T03:01:19.646Z,994.57
2017-10-09T03:02:18.126Z,994.57
2017-10-09T03:03:18.068Z,994.54
2017-10-09T03:04:18.691Z,994.48
2017-10-09T03:05:19.321Z,994.49
2017-10-09T03:06:19.266Z,994.48
2017-10-09T03:07:19.298Z,994.52
2017-10-09T03:08:19.331Z,994.51
2017-10-09T03:09:18.959Z,994.45
2017-10-09T03:10:19.287Z,994.53
2017-10-09T03:11:18.747Z,994.49
2017-10-09T03:12:18.680Z,994.51
2017-10-09T03:13:18.711Z,994.51
2017-10-09T03:14:18.731Z,994.46
2017-10-09T03:15:18.172Z,994.45
2017-10-09T03:16:18.107Z,994.53
2017-10-09T03:17:18.156Z,994.49
2017-10-09T03:18:18.079Z,994.52
2017-10-09T03:19:18.095Z,994.47
2017-10-09T03:20:18.762Z,994.58
2017-10-09T03:21:18.781Z,994.55
2017-10-09T03:22:19.320Z,994.53
2017-10-09T03:23:19.345Z,994.54
2017-10-09T03:24:19.375Z,994.51
2017-10-09T03:25:19.482Z,994.43
2017-10-09T03:26:19.309Z,994.54
2017-10-09T03:27:18.743Z,994.45
2017-10-09T03:28:18.764Z,994.46
2017-10-09T03:29:18.794Z,994.47
2017-10-09T03:30:18.131Z,994.48
2017-10-09T03:31:18.158Z,994.44
2017-10-09T03:32:18.191Z,994.47
2017-10-09T03:33:18.156Z,994.44
2017-10-09T03:34:18.196Z,994.52
2017-10-09T03:35:18.213Z,994.44
2017-10-09T03:36:18.147Z,994.31
2017-10-09T03:37:19.376Z,994.35
2017-10-09T03:38:19.400Z,994.37
2017-10-09T03:39:19.425Z,994.37
2017-10-09T03:40:19.454Z,994.41
2017-10-09T03:41:19.380Z,994.31
2017-10-09T03:42:19.436Z,994.39
2017-10-09T03:43:19.464Z,994.43
2017-10-09T03:44:18.779Z,994.37
2017-10-09T03:45:19.547Z,994.38
2017-10-09T03:46:41.411Z,994.38
2017-10-09T03:48:40.539Z,994.43
2017-10-09T03:48:41.351Z,994.42
2017-10-09T03:48:42.163Z,994.43
2017-10-09T03:49:18.237Z,994.46
2017-10-09T03:50:18.860Z,994.37
2017-10-09T03:51:18.796Z,994.42
2017-10-09T03:52:18.820Z,994.40
2017-10-09T03:53:18.844Z,994.44
2017-10-09T03:54:18.864Z,994.40
2017-10-09T03:55:19.494Z,994.40
2017-10-09T03:56:19.525Z,994.43
2017-10-09T03:57:19.453Z,994.41
2017-10-09T03:58:19.478Z,994.43
2017-10-09T03:59:19.509Z,994.49
2017-10-09T04:00:19.579Z,994.44
2017-10-09T04:01:19.538Z,994.51
2017-10-09T04:02:18.852Z,994.47
2017-10-09T04:03:18.874Z,994.44
2017-10-09T04:04:18.913Z,994.42
2017-10-09T04:05:18.344Z,994.44
2017-10-09T04:06:18.289Z,994.50
2017-10-09T04:07:18.326Z,994.43
2017-10-09T04:08:18.276Z,994.49
2017-10-09T04:09:18.394Z,994.41
2017-10-09T04:10:18.320Z,994.42
2017-10-09T04:11:18.947Z,994.48
2017-10-09T04:12:19.474Z,994.48
2017-10-09T04:13:19.595Z,994.43
2017-10-09T04:14:19.527Z,994.43
2017-10-09T04:15:19.762Z,994.43
2017-10-09T04:16:19.486Z,994.46
2017-10-09T04:17:19.523Z,994.45
2017-10-09T04:18:18.931Z,994.45
2017-10-09T04:19:18.950Z,994.41
2017-10-09T04:20:18.980Z,994.44
2017-10-09T04:21:18.301Z,994.46
2017-10-09T04:22:18.330Z,994.53
2017-10-09T04:23:18.377Z,994.49
2017-10-09T04:24:18.402Z,994.45
2017-10-09T04:25:18.350Z,994.40
2017-10-09T04:26:18.277Z,994.45
2017-10-09T04:27:18.298Z,994.49
2017-10-09T04:28:19.542Z,994.48
2017-10-09T04:29:19.576Z,994.52
2017-10-09T04:30:19.596Z,994.48
2017-10-09T04:31:19.521Z,994.56
2017-10-09T04:32:19.554Z,994.53
2017-10-09T04:33:19.587Z,994.57
2017-10-09T04:34:19.618Z,994.51
2017-10-09T04:35:19.644Z,994.46
2017-10-09T04:36:18.258Z,994.43
2017-10-09T04:37:18.993Z,994.46
2017-10-09T04:38:19.028Z,994.45
2017-10-09T04:39:19.356Z,994.51
2017-10-09T04:40:18.386Z,994.48
2017-10-09T04:41:18.403Z,994.49
2017-10-09T04:42:18.429Z,994.53
2017-10-09T04:43:18.343Z,994.49
2017-10-09T04:44:19.065Z,994.49
2017-10-09T04:45:19.592Z,994.51
2017-10-09T04:46:19.618Z,994.48
2017-10-09T04:47:19.647Z,994.55
2017-10-09T04:48:20.170Z,994.58
2017-10-09T04:49:18.382Z,994.55
2017-10-09T04:50:19.614Z,994.56
2017-10-09T04:51:19.641Z,994.61
2017-10-09T04:52:19.060Z,994.53
2017-10-09T04:53:18.989Z,994.60
2017-10-09T04:54:19.022Z,994.52
2017-10-09T04:55:19.076Z,994.53
2017-10-09T04:56:18.415Z,994.55
2017-10-09T04:57:18.447Z,994.54
2017-10-09T04:58:18.501Z,994.48
2017-10-09T04:59:18.474Z,994.45
2017-10-09T05:00:18.471Z,994.50
2017-10-09T05:01:19.131Z,994.46
2017-10-09T05:02:19.672Z,994.45
2017-10-09T05:03:19.656Z,994.47
2017-10-09T05:04:19.677Z,994.45
2017-10-09T05:05:19.678Z,994.40
2017-10-09T05:06:19.844Z,994.49
2017-10-09T05:07:19.673Z,994.42
2017-10-09T05:08:19.074Z,994.46
2017-10-09T05:09:19.121Z,994.37
2017-10-09T05:10:19.099Z,994.43
2017-10-09T05:11:19.160Z,994.39
2017-10-09T05:12:18.492Z,994.43
2017-10-09T05:13:18.534Z,994.40
2017-10-09T05:14:18.478Z,994.36
2017-10-09T05:15:18.556Z,994.45
2017-10-09T05:16:18.507Z,994.41
2017-10-09T05:17:18.507Z,994.39
2017-10-09T05:18:19.138Z,994.41
2017-10-09T05:19:19.769Z,994.35
2017-10-09T05:20:19.703Z,994.44
2017-10-09T05:21:19.762Z,994.45
2017-10-09T05:22:19.809Z,994.42
2017-10-09T05:23:19.783Z,994.43
2017-10-09T05:24:19.718Z,994.41
2017-10-09T05:25:19.796Z,994.35
2017-10-09T05:26:19.133Z,994.40
2017-10-09T05:27:19.160Z,994.40
2017-10-09T05:28:19.196Z,994.52
2017-10-09T05:29:18.520Z,994.45
2017-10-09T05:30:18.565Z,994.41
2017-10-09T05:31:18.599Z,994.53
2017-10-09T05:32:18.532Z,994.58
2017-10-09T05:33:18.584Z,994.50
2017-10-09T05:34:18.621Z,994.48
2017-10-09T05:35:18.641Z,994.57
2017-10-09T05:36:19.793Z,994.59
2017-10-09T05:37:19.831Z,994.49
2017-10-09T05:38:19.779Z,994.46
2017-10-09T05:39:19.817Z,994.48
2017-10-09T05:40:19.786Z,994.56
2017-10-09T05:41:19.837Z,994.48
2017-10-09T05:42:19.165Z,994.51
2017-10-09T05:43:24.971Z,994.54
2017-10-09T05:44:19.241Z,994.53
2017-10-09T05:45:18.473Z,994.51
2017-10-09T05:46:19.230Z,994.45
2017-10-09T05:47:18.564Z,994.48
2017-10-09T05:48:18.599Z,994.52
2017-10-09T05:49:18.641Z,994.57
2017-10-09T05:50:18.685Z,994.52
2017-10-09T05:51:18.617Z,994.48
2017-10-09T05:52:19.265Z,994.54
2017-10-09T05:53:19.802Z,994.45
2017-10-09T05:54:19.877Z,994.50
2017-10-09T05:55:19.826Z,994.46
2017-10-09T05:56:19.888Z,994.50
2017-10-09T05:57:19.834Z,994.45
2017-10-09T05:58:19.875Z,994.52
2017-10-09T05:59:19.198Z,994.50
2017-10-09T06:00:19.250Z,994.43
2017-10-09T06:01:19.282Z,994.49
2017-10-09T06:02:19.227Z,994.51
2017-10-09T06:03:19.289Z,994.51
2017-10-09T06:04:18.717Z,994.51
2017-10-09T06:05:18.671Z,994.53
2017-10-09T06:06:18.699Z,994.54
2017-10-09T06:07:18.729Z,994.45
2017-10-09T06:08:18.656Z,994.43
2017-10-09T06:09:19.586Z,994.46
2017-10-09T06:10:21.031Z,994.35
2017-10-09T06:11:19.865Z,994.37
2017-10-09T06:12:19.920Z,994.32
2017-10-09T06:13:19.948Z,994.39
2017-10-09T06:14:19.870Z,994.35
2017-10-09T06:15:19.894Z,994.31
2017-10-09T06:16:28.024Z,994.29
2017-10-09T06:17:18.739Z,994.33
2017-10-09T06:18:19.973Z,994.30
2017-10-09T06:19:19.297Z,994.26
2017-10-09T06:20:18.721Z,994.24
2017-10-09T06:21:18.757Z,994.23
2017-10-09T06:22:18.687Z,994.28
2017-10-09T06:23:18.704Z,994.31
2017-10-09T06:24:18.743Z,994.29
2017-10-09T06:25:18.773Z,994.28
2017-10-09T06:26:18.695Z,994.36
2017-10-09T06:27:19.925Z,994.30
2017-10-09T06:28:19.955Z,994.29
2017-10-09T06:29:19.990Z,994.23
2017-10-09T06:30:20.026Z,994.34
2017-10-09T06:31:20.055Z,994.32
2017-10-09T06:32:19.981Z,994.37
2017-10-09T06:33:20.016Z,994.39
2017-10-09T06:34:19.337Z,994.30
2017-10-09T06:35:19.381Z,994.35
2017-10-09T06:36:19.415Z,994.41
2017-10-09T06:37:18.738Z,994.39
2017-10-09T06:38:18.777Z,994.41
2017-10-09T06:39:18.790Z,994.42
2017-10-09T06:40:18.921Z,994.40
2017-10-09T06:41:18.761Z,994.45
2017-10-09T06:42:18.779Z,994.52
2017-10-09T06:43:18.753Z,994.49
2017-10-09T06:44:19.989Z,994.51
2017-10-09T06:45:20.012Z,994.57
2017-10-09T06:46:20.037Z,994.51
2017-10-09T06:47:20.008Z,994.56
2017-10-09T06:48:20.068Z,994.55
2017-10-09T06:49:20.006Z,994.57
2017-10-09T06:50:20.047Z,994.66
2017-10-09T06:51:19.372Z,994.57
2017-10-09T06:52:19.412Z,994.64
2017-10-09T06:53:19.438Z,994.60
2017-10-09T06:54:18.864Z,994.61
2017-10-09T06:55:18.900Z,994.64
2017-10-09T06:56:18.830Z,994.75
2017-10-09T06:57:18.865Z,994.68
2017-10-09T06:58:18.891Z,994.58
2017-10-09T06:59:18.829Z,994.67
2017-10-09T07:00:19.484Z,994.74
2017-10-09T07:01:20.107Z,994.60
2017-10-09T07:02:20.137Z,994.68
2017-10-09T07:03:20.071Z,994.64
2017-10-09T07:04:24.197Z,994.61
2017-10-09T07:05:20.305Z,994.68
2017-10-09T07:06:20.174Z,994.67
2017-10-09T07:07:20.109Z,994.65
2017-10-09T07:08:19.455Z,994.72
2017-10-09T07:09:19.504Z,994.69
2017-10-09T07:10:19.540Z,994.71
2017-10-09T07:11:18.879Z,994.78
2017-10-09T07:12:18.932Z,994.67
2017-10-09T07:13:18.867Z,994.74
2017-10-09T07:14:18.889Z,994.73
2017-10-09T07:15:18.939Z,994.66
2017-10-09T07:16:18.894Z,994.70
2017-10-09T07:17:19.649Z,994.72
2017-10-09T07:18:20.091Z,994.70
2017-10-09T07:19:20.158Z,994.69
2017-10-09T07:20:20.193Z,994.71
2017-10-09T07:21:20.244Z,994.77
2017-10-09T07:22:20.143Z,994.69
2017-10-09T07:23:20.775Z,994.75
2017-10-09T07:24:19.564Z,994.79
2017-10-09T07:25:19.593Z,994.75
2017-10-09T07:26:19.583Z,994.75
2017-10-09T07:27:19.571Z,994.75
2017-10-09T07:28:19.668Z,994.78
2017-10-09T07:29:18.952Z,994.80
2017-10-09T07:30:18.966Z,994.76
2017-10-09T07:31:18.998Z,994.78
2017-10-09T07:32:18.944Z,994.79
2017-10-09T07:33:18.973Z,994.77
2017-10-09T07:34:18.917Z,994.76
2017-10-09T07:35:20.169Z,994.70
2017-10-09T07:36:19.715Z,994.72
2017-10-09T07:37:19.753Z,994.71
2017-10-09T07:38:20.295Z,994.70
2017-10-09T07:39:24.753Z,994.71
2017-10-09T07:40:20.255Z,994.79
2017-10-09T07:41:19.549Z,994.68
2017-10-09T07:42:19.616Z,994.70
2017-10-09T07:43:19.544Z,994.73
2017-10-09T07:44:19.586Z,994.68
2017-10-09T07:45:19.646Z,994.72
2017-10-09T07:46:18.980Z,994.77
2017-10-09T07:47:19.011Z,994.66
2017-10-09T07:48:18.971Z,994.64
2017-10-09T07:49:19.007Z,994.65
2017-10-09T07:50:19.047Z,994.70
2017-10-09T07:51:19.078Z,994.71
2017-10-09T07:52:19.016Z,994.77
2017-10-09T07:53:19.678Z,994.71
2017-10-09T07:54:20.222Z,994.68
2017-10-09T07:55:20.274Z,994.74
2017-10-09T07:56:20.224Z,994.69
2017-10-09T07:57:20.273Z,994.76
2017-10-09T07:58:20.209Z,994.68
2017-10-09T07:59:19.639Z,994.70
2017-10-09T08:00:19.700Z,994.70
2017-10-09T08:01:19.642Z,994.73
2017-10-09T08:02:19.797Z,994.78
2017-10-09T08:03:19.849Z,994.70
2017-10-09T08:04:19.076Z,994.70
2017-10-09T08:05:19.115Z,994.71
2017-10-09T08:06:19.054Z,994.76
2017-10-09T08:07:19.190Z,994.64
2017-10-09T08:08:19.127Z,994.71
2017-10-09T08:09:19.174Z,994.64
2017-10-09T08:10:19.112Z,994.61
2017-10-09T08:11:20.251Z,994.73
2017-10-09T08:12:20.293Z,994.61
2017-10-09T08:13:20.328Z,994.67
2017-10-09T08:14:20.303Z,994.66
2017-10-09T08:15:20.405Z,994.72
2017-10-09T08:16:20.345Z,994.70
2017-10-09T08:17:20.399Z,994.65
2017-10-09T08:18:19.721Z,994.75
2017-10-09T08:19:19.666Z,994.68
2017-10-09T08:20:19.724Z,994.73
2017-10-09T08:21:19.059Z,994.73
2017-10-09T08:22:19.112Z,994.72
2017-10-09T08:23:19.048Z,994.70
2017-10-09T08:24:19.097Z,994.67
2017-10-09T08:25:19.161Z,994.68
2017-10-09T08:26:19.100Z,994.65
2017-10-09T08:27:20.356Z,994.66
2017-10-09T08:28:20.619Z,994.65
2017-10-09T08:29:20.360Z,994.61
2017-10-09T08:30:20.350Z,994.57
2017-10-09T08:31:20.381Z,994.61
2017-10-09T08:32:20.351Z,994.65
2017-10-09T08:33:20.357Z,994.67
2017-10-09T08:34:20.435Z,994.67
2017-10-09T08:35:19.809Z,994.61
2017-10-09T08:36:19.744Z,994.66
2017-10-09T08:37:19.832Z,994.65
2017-10-09T08:38:19.185Z,994.69
2017-10-09T08:39:19.163Z,994.67
2017-10-09T08:40:19.230Z,994.62
2017-10-09T08:41:19.172Z,994.66
2017-10-09T08:42:19.214Z,994.65
2017-10-09T08:43:19.212Z,994.63
2017-10-09T08:44:20.168Z,994.60
2017-10-09T08:45:19.366Z,994.59
2017-10-09T08:46:19.240Z,994.64
2017-10-09T08:47:20.386Z,994.64
2017-10-09T08:48:20.436Z,994.59
2017-10-09T08:49:20.388Z,994.63
2017-10-09T08:50:20.434Z,994.58
2017-10-09T08:51:19.777Z,994.61
2017-10-09T08:52:19.842Z,994.58
2017-10-09T08:53:19.831Z,994.61
2017-10-09T08:54:19.887Z,994.61
2017-10-09T08:55:19.840Z,994.62
2017-10-09T08:56:19.186Z,994.57
2017-10-09T08:57:19.247Z,994.56
2017-10-09T08:58:20.028Z,994.63
2017-10-09T08:59:19.221Z,994.58
2017-10-09T09:00:19.278Z,994.58
2017-10-09T09:01:19.279Z,994.67
2017-10-09T09:02:20.433Z,994.62
2017-10-09T09:03:20.481Z,994.65
2017-10-09T09:04:20.466Z,994.61
2017-10-09T09:05:20.558Z,994.64
2017-10-09T09:06:20.433Z,994.62
2017-10-09T09:07:20.474Z,994.64
2017-10-09T09:08:20.562Z,994.68
2017-10-09T09:09:19.849Z,994.57
2017-10-09T09:10:20.550Z,994.70
2017-10-09T09:11:19.890Z,994.67
2017-10-09T09:12:19.231Z,994.69
2017-10-09T09:13:19.288Z,994.77
2017-10-09T09:14:19.228Z,994.66
2017-10-09T09:15:19.339Z,994.64
2017-10-09T09:16:19.277Z,994.72
2017-10-09T09:17:19.326Z,994.66
2017-10-09T09:18:19.316Z,994.68
2017-10-09T09:19:19.268Z,994.74
2017-10-09T09:20:20.046Z,994.74
2017-10-09T09:21:20.537Z,994.73
2017-10-09T09:22:20.628Z,994.62
2017-10-09T09:23:20.479Z,994.68
2017-10-09T09:24:20.532Z,994.61
2017-10-09T09:25:20.596Z,994.63
2017-10-09T09:26:20.545Z,994.62
2017-10-09T09:27:19.929Z,994.65
2017-10-09T09:28:19.939Z,994.62
2017-10-09T09:29:19.944Z,994.56
2017-10-09T09:30:19.312Z,994.62
2017-10-09T09:31:19.362Z,994.64
2017-10-09T09:32:19.309Z,994.65
2017-10-09T09:33:19.367Z,994.70
2017-10-09T09:34:19.340Z,994.75
2017-10-09T09:35:19.404Z,994.78
2017-10-09T09:36:19.349Z,994.76
2017-10-09T09:37:20.007Z,994.84
2017-10-09T09:38:20.581Z,994.66
2017-10-09T09:39:20.660Z,994.72
2017-10-09T09:40:20.638Z,994.74
2017-10-09T09:41:20.580Z,994.72
2017-10-09T09:42:20.610Z,994.69
2017-10-09T09:43:20.682Z,994.79
2017-10-09T09:44:20.631Z,994.77
2017-10-09T09:45:20.679Z,994.84
2017-10-09T09:46:20.001Z,994.72
2017-10-09T09:47:20.018Z,994.77
2017-10-09T09:48:19.352Z,994.78
2017-10-09T09:49:19.412Z,994.79
2017-10-09T09:50:19.479Z,994.84
2017-10-09T09:51:19.429Z,994.77
2017-10-09T09:52:19.404Z,994.78
2017-10-09T09:53:19.368Z,994.84
2017-10-09T09:54:21.628Z,994.79
2017-10-09T09:55:19.461Z,994.77
2017-10-09T09:56:20.645Z,994.81
2017-10-09T09:57:20.599Z,994.79
2017-10-09T09:58:20.638Z,994.81
2017-10-09T09:59:20.680Z,994.78
2017-10-09T10:00:20.640Z,994.77
2017-10-09T10:01:20.009Z,994.78
2017-10-09T10:02:20.072Z,994.75
2017-10-09T10:03:20.062Z,994.73
2017-10-09T10:04:20.072Z,994.72
2017-10-09T10:05:20.127Z,994.74
2017-10-09T10:06:19.487Z,994.80
2017-10-09T10:07:19.476Z,994.72
2017-10-09T10:08:19.430Z,994.76
2017-10-09T10:09:19.515Z,994.70
2017-10-09T10:10:19.568Z,994.73
2017-10-09T10:11:19.432Z,994.70
2017-10-09T10:12:20.099Z,994.76
2017-10-09T10:13:20.710Z,994.75
2017-10-09T10:14:20.752Z,994.72
2017-10-09T10:15:20.704Z,994.79
2017-10-09T10:16:20.745Z,994.77
2017-10-09T10:17:20.684Z,994.73
2017-10-09T10:18:20.730Z,994.76
2017-10-09T10:19:20.774Z,994.72
2017-10-09T10:20:20.147Z,994.77
2017-10-09T10:21:20.155Z,994.70
2017-10-09T10:22:20.101Z,994.74
2017-10-09T10:23:19.531Z,994.74
2017-10-09T10:24:19.579Z,994.80
2017-10-09T10:25:34.553Z,994.75
2017-10-09T10:26:34.688Z,994.75
2017-10-09T10:27:34.492Z,994.64
2017-10-09T10:28:19.538Z,994.73
2017-10-09T10:29:20.119Z,994.80
2017-10-09T10:30:20.168Z,994.71
2017-10-09T10:31:20.728Z,994.66
2017-10-09T10:32:20.722Z,994.69
2017-10-09T10:33:20.767Z,994.69
2017-10-09T10:34:20.769Z,994.66
2017-10-09T10:35:20.827Z,994.67
2017-10-09T10:36:20.812Z,994.67
2017-10-09T10:37:20.130Z,994.59
2017-10-09T10:38:20.210Z,994.71
2017-10-09T10:39:20.160Z,994.59
2017-10-09T10:40:20.213Z,994.57
2017-10-09T10:41:19.565Z,994.62
2017-10-09T10:42:19.532Z,994.67
2017-10-09T10:43:19.582Z,994.59
2017-10-09T10:44:19.532Z,994.57
2017-10-09T10:45:19.576Z,994.54
2017-10-09T10:46:19.622Z,994.61
2017-10-09T10:47:19.653Z,994.56
2017-10-09T10:48:20.908Z,994.50
2017-10-09T10:49:20.842Z,994.52
2017-10-09T10:50:20.883Z,994.49
2017-10-09T10:51:20.844Z,994.50
2017-10-09T10:52:20.904Z,994.49
2017-10-09T10:53:20.893Z,994.50
2017-10-09T10:54:20.972Z,994.45
2017-10-09T10:55:20.929Z,994.55
2017-10-09T10:56:20.284Z,994.53
2017-10-09T10:57:20.220Z,994.52
2017-10-09T10:58:20.260Z,994.52
2017-10-09T10:59:20.335Z,994.60
2017-10-09T11:00:21.106Z,994.51
2017-10-09T11:01:19.667Z,994.47
2017-10-09T11:02:19.706Z,994.45
2017-10-09T11:03:19.644Z,994.37
2017-10-09T11:04:20.269Z,994.39
2017-10-09T11:05:20.830Z,994.40
2017-10-09T11:06:20.905Z,994.42
2017-10-09T11:07:20.835Z,994.34
2017-10-09T11:08:20.876Z,994.35
2017-10-09T11:09:20.963Z,994.29
2017-10-09T11:10:20.836Z,994.36
2017-10-09T11:11:20.885Z,994.34
2017-10-09T11:12:20.932Z,994.37
2017-10-09T11:13:20.260Z,994.36
2017-10-09T11:14:20.320Z,994.29
2017-10-09T11:15:20.408Z,994.35
2017-10-09T11:16:19.734Z,994.31
2017-10-09T11:17:19.678Z,994.35
2017-10-09T11:18:19.751Z,994.34
2017-10-09T11:19:19.697Z,994.35
2017-10-09T11:20:19.727Z,994.39
2017-10-09T11:21:19.764Z,994.32
2017-10-09T11:22:19.708Z,994.38
2017-10-09T11:23:20.960Z,994.39
2017-10-09T11:24:20.925Z,994.34
2017-10-09T11:25:20.897Z,994.32
2017-10-09T11:26:20.943Z,994.35
2017-10-09T11:27:20.909Z,994.35
2017-10-09T11:28:20.971Z,994.29
2017-10-09T11:29:20.314Z,994.31
2017-10-09T11:30:25.310Z,994.31
2017-10-09T11:31:19.747Z,994.32
2017-10-09T11:32:21.318Z,994.32
2017-10-09T11:33:19.682Z,994.29
2017-10-09T11:34:19.756Z,994.36
2017-10-09T11:35:19.708Z,994.35
2017-10-09T11:36:19.753Z,994.36
2017-10-09T11:37:19.799Z,994.37
2017-10-09T11:38:19.746Z,994.27
2017-10-09T11:39:20.390Z,994.24
2017-10-09T11:40:20.426Z,994.30
2017-10-09T11:41:21.061Z,994.29
2017-10-09T11:42:21.012Z,994.29
2017-10-09T11:43:21.062Z,994.26
2017-10-09T11:44:21.028Z,994.25
2017-10-09T11:45:21.032Z,994.21
2017-10-09T11:46:21.079Z,994.19
2017-10-09T11:47:21.062Z,994.23
2017-10-09T11:48:20.446Z,994.23
2017-10-09T11:49:20.896Z,994.17
2017-10-09T11:50:19.778Z,994.19
2017-10-09T11:51:19.824Z,994.14
2017-10-09T11:52:19.871Z,994.15
2017-10-09T11:53:19.857Z,994.20
2017-10-09T11:54:19.837Z,994.13
2017-10-09T11:55:19.813Z,994.11
2017-10-09T11:56:19.860Z,994.09
2017-10-09T11:57:19.824Z,994.15
2017-10-09T11:58:21.072Z,994.13
2017-10-09T11:59:21.021Z,994.14
2017-10-09T12:00:21.077Z,994.08
2017-10-09T12:01:21.125Z,994.10
2017-10-09T12:02:21.076Z,994.09
2017-10-09T12:03:21.017Z,994.02
2017-10-09T12:04:21.081Z,994.12
2017-10-09T12:05:20.438Z,994.17
2017-10-09T12:06:20.498Z,994.11
2017-10-09T12:07:20.438Z,994.10
2017-10-09T12:08:20.498Z,994.11
2017-10-09T12:09:20.551Z,994.08
2017-10-09T12:10:19.904Z,994.12
2017-10-09T12:11:19.937Z,994.15
2017-10-09T12:12:19.869Z,994.12
2017-10-09T12:13:19.901Z,994.09
2017-10-09T12:14:19.835Z,994.09
2017-10-09T12:15:20.369Z,994.14
2017-10-09T12:16:21.150Z,994.13
2017-10-09T12:17:21.094Z,994.11
2017-10-09T12:18:21.059Z,994.11
2017-10-09T12:19:21.099Z,994.08
2017-10-09T12:20:20.855Z,994.02
2017-10-09T12:21:21.174Z,994.00
2017-10-09T12:22:20.513Z,993.94
2017-10-09T12:23:20.559Z,994.04
2017-10-09T12:24:20.520Z,993.97
2017-10-09T12:25:20.563Z,993.97
2017-10-09T12:26:19.922Z,993.93
2017-10-09T12:27:19.982Z,993.96